Chesterfield Township, New Jersey
Current Conditions -  °F | °C
As of 4:58 PM on Tuesday 27 Jan 2015 (Local Time) from KWRI Reporting Station
Clear Clear  
Wind Chill: 20°   Ceiling: Unl
Heat Index: 29°   Visibility: 10mi
Dew Point: 14°   Wind: 10mph
Humidity: 52%   Direction: 300°WNW
Pressure: 29.68"   Gusts: NA
Location:  40.144°N, 74.6589°W
Report Text: KWRI 272158Z AUTO 30009KT 10SM CLR M02/M10 A2968 RMK AO2 SLP055 T10161102 $
Loading
Personal Weather Stations






























Interactive Weather Map New forecast layout! Learn more

10-Day Weather Forecast

Advertisements
Track Severe Weather on mobile